createdAt,value
2022-08-21T00:01:57.025Z,19.89
2022-08-21T00:04:29.268Z,19.90
2022-08-21T00:06:59.740Z,19.91
2022-08-21T00:09:27.835Z,19.92
2022-08-21T00:11:55.913Z,19.93
2022-08-21T00:14:24.604Z,19.94
2022-08-21T00:16:52.675Z,19.96
2022-08-21T00:19:26.116Z,19.96
2022-08-21T00:21:55.633Z,19.98
2022-08-21T00:24:25.354Z,19.98
2022-08-21T00:26:54.015Z,19.97
2022-08-21T00:29:22.187Z,19.97
2022-08-21T00:31:50.531Z,19.96
2022-08-21T00:34:18.687Z,19.95
2022-08-21T00:36:46.715Z,19.95
2022-08-21T00:39:15.541Z,19.97
2022-08-21T00:41:44.437Z,19.99
2022-08-21T00:44:15.556Z,20.04
2022-08-21T00:46:44.355Z,20.10
2022-08-21T00:49:13.197Z,20.17
2022-08-21T00:51:54.859Z,20.25
2022-08-21T00:54:25.983Z,20.32
2022-08-21T00:57:00.734Z,20.33
2022-08-21T00:59:33.659Z,20.36
2022-08-21T01:02:02.394Z,20.40
2022-08-21T01:04:30.458Z,20.41
2022-08-21T01:06:58.624Z,20.42
2022-08-21T01:09:26.928Z,20.39
2022-08-21T01:11:55.513Z,20.37
2022-08-21T01:14:23.885Z,20.37
2022-08-21T01:16:54.997Z,20.38
2022-08-21T01:19:23.563Z,20.35
2022-08-21T01:21:52.706Z,20.34
2022-08-21T01:24:21.313Z,20.39
2022-08-21T01:26:52.067Z,20.44
2022-08-21T01:29:44.536Z,20.43
2022-08-21T01:32:17.316Z,20.43
2022-08-21T01:34:47.886Z,20.45
2022-08-21T01:37:16.545Z,20.48
2022-08-21T01:39:47.377Z,20.47
2022-08-21T01:42:15.855Z,20.47
2022-08-21T01:44:44.460Z,20.47
2022-08-21T01:47:15.030Z,20.49
2022-08-21T01:49:46.370Z,20.50
2022-08-21T01:52:14.689Z,20.50
2022-08-21T01:54:43.528Z,20.50
2022-08-21T01:57:13.848Z,20.50
2022-08-21T01:59:42.522Z,20.52
2022-08-21T02:02:10.461Z,20.53
2022-08-21T02:04:38.526Z,20.55
2022-08-21T02:07:08.380Z,20.55
2022-08-21T02:09:40.225Z,20.58
2022-08-21T02:12:08.636Z,20.59
2022-08-21T02:14:36.760Z,20.50
2022-08-21T02:17:09.230Z,20.47
2022-08-21T02:19:40.738Z,20.43
2022-08-21T02:22:11.312Z,20.44
2022-08-21T02:24:54.746Z,20.51
2022-08-21T02:27:26.858Z,20.54
2022-08-21T02:29:57.799Z,20.57
2022-08-21T02:32:26.956Z,20.60
2022-08-21T02:34:55.167Z,20.60
2022-08-21T02:37:24.329Z,20.59
2022-08-21T02:39:52.523Z,20.56
2022-08-21T02:42:20.627Z,20.51
2022-08-21T02:44:49.102Z,20.44
2022-08-21T02:47:17.087Z,20.37
2022-08-21T02:49:45.040Z,20.31
2022-08-21T02:52:13.102Z,20.22
2022-08-21T02:54:41.451Z,20.18
2022-08-21T02:57:09.470Z,20.12
2022-08-21T02:59:37.605Z,20.05
2022-08-21T03:02:05.608Z,19.92
2022-08-21T03:04:33.966Z,19.78
2022-08-21T03:07:02.023Z,19.70
2022-08-21T03:09:30.045Z,19.64
2022-08-21T03:11:58.805Z,19.58
2022-08-21T03:14:26.887Z,19.52
2022-08-21T03:16:55.007Z,19.32
2022-08-21T03:19:23.085Z,19.16
2022-08-21T03:21:50.997Z,18.98
2022-08-21T03:24:18.954Z,18.86
2022-08-21T03:26:49.747Z,18.76
2022-08-21T03:29:18.089Z,18.77
2022-08-21T03:31:46.098Z,18.79
2022-08-21T03:34:14.233Z,18.77
2022-08-21T03:36:42.218Z,18.74
2022-08-21T03:39:10.353Z,18.70
2022-08-21T03:41:38.504Z,18.62
2022-08-21T03:44:06.520Z,18.56
2022-08-21T03:46:34.997Z,18.56
2022-08-21T03:49:03.922Z,18.54
2022-08-21T03:51:33.495Z,18.57
2022-08-21T03:54:01.434Z,18.61
2022-08-21T03:56:29.531Z,18.64
2022-08-21T03:58:57.870Z,18.67
2022-08-21T04:01:26.635Z,18.71
2022-08-21T04:03:54.779Z,18.73
2022-08-21T04:06:22.798Z,18.74
2022-08-21T04:08:50.721Z,18.77
2022-08-21T04:11:18.804Z,18.80
2022-08-21T04:13:46.924Z,18.83
2022-08-21T04:16:15.426Z,18.83
2022-08-21T04:18:43.912Z,18.83
2022-08-21T04:21:13.424Z,18.86
2022-08-21T04:23:41.802Z,18.88
2022-08-21T04:26:10.214Z,18.87
2022-08-21T04:28:38.273Z,18.89
2022-08-21T04:31:06.489Z,18.91
2022-08-21T04:33:35.277Z,18.93
2022-08-21T04:36:03.726Z,18.95
2022-08-21T04:38:37.395Z,18.95
2022-08-21T04:41:07.604Z,18.97
2022-08-21T04:43:36.163Z,19.02
2022-08-21T04:46:04.416Z,19.10
2022-08-21T04:48:34.142Z,19.15
2022-08-21T04:51:13.122Z,19.20
2022-08-21T04:54:10.161Z,19.28
2022-08-21T04:56:50.609Z,19.33
2022-08-21T04:59:23.624Z,19.39
2022-08-21T05:01:53.046Z,19.46
2022-08-21T05:04:25.626Z,19.55
2022-08-21T05:06:58.872Z,19.63
2022-08-21T05:09:26.919Z,19.61
2022-08-21T05:11:56.337Z,19.68
2022-08-21T05:14:24.327Z,19.71
2022-08-21T05:16:52.805Z,19.75
2022-08-21T05:19:20.962Z,19.79
2022-08-21T05:21:49.299Z,19.81
2022-08-21T05:24:17.331Z,19.82
2022-08-21T05:26:47.743Z,19.84
2022-08-21T05:29:18.290Z,19.86
2022-08-21T05:31:48.221Z,19.86
2022-08-21T05:34:20.247Z,19.83
2022-08-21T05:36:48.226Z,19.71
2022-08-21T05:39:16.776Z,19.72
2022-08-21T05:41:44.751Z,19.72
2022-08-21T05:44:12.737Z,19.74
2022-08-21T05:46:40.725Z,19.74
2022-08-21T05:49:09.221Z,19.71
2022-08-21T05:51:37.375Z,19.69
2022-08-21T05:54:05.411Z,19.62
2022-08-21T05:56:33.478Z,19.60
2022-08-21T05:59:01.983Z,19.58
2022-08-21T06:01:31.744Z,19.59
2022-08-21T06:04:00.450Z,19.55
2022-08-21T06:06:29.539Z,19.54
2022-08-21T06:08:57.521Z,19.56
2022-08-21T06:11:28.867Z,19.59
2022-08-21T06:13:57.320Z,19.61
2022-08-21T06:16:26.047Z,19.61
2022-08-21T06:18:54.215Z,19.60
2022-08-21T06:21:22.424Z,19.57
2022-08-21T06:23:50.602Z,19.55
2022-08-21T06:26:18.691Z,19.50
2022-08-21T06:28:46.811Z,19.32
2022-08-21T06:31:24.825Z,19.21
2022-08-21T06:33:53.761Z,19.15
2022-08-21T06:36:22.263Z,19.12
2022-08-21T06:38:51.793Z,19.07
2022-08-21T06:41:24.282Z,19.06
2022-08-21T06:43:57.741Z,18.89
2022-08-21T06:46:29.715Z,18.80
2022-08-21T06:48:58.914Z,18.80
2022-08-21T06:51:28.083Z,18.76
2022-08-21T06:53:58.791Z,18.67
2022-08-21T06:56:27.613Z,18.67
2022-08-21T06:58:55.597Z,18.69
2022-08-21T07:01:26.863Z,18.72
2022-08-21T07:03:55.422Z,18.78
2022-08-21T07:06:23.689Z,18.85
2022-08-21T07:08:52.021Z,18.91
2022-08-21T07:11:23.484Z,18.94
2022-08-21T07:13:53.841Z,19.04
2022-08-21T07:16:23.460Z,19.16
2022-08-21T07:18:51.532Z,19.25
2022-08-21T07:21:25.213Z,19.40
2022-08-21T07:23:55.068Z,19.61
2022-08-21T07:26:24.896Z,19.83
2022-08-21T07:28:53.993Z,20.06
2022-08-21T07:31:25.461Z,20.39
2022-08-21T07:33:54.533Z,20.73
2022-08-21T07:36:23.057Z,21.02
2022-08-21T07:38:52.573Z,21.32
2022-08-21T07:41:26.883Z,21.46
2022-08-21T07:43:56.580Z,21.83
2022-08-21T07:46:26.879Z,22.05
2022-08-21T07:48:56.064Z,22.25
2022-08-21T07:51:28.511Z,22.32
2022-08-21T07:54:00.409Z,22.33
2022-08-21T07:56:31.454Z,22.27
2022-08-21T07:58:59.660Z,22.14
2022-08-21T08:01:28.160Z,22.05
2022-08-21T08:03:57.342Z,22.07
2022-08-21T08:06:27.236Z,22.12
2022-08-21T08:08:55.167Z,22.09
2022-08-21T08:11:23.804Z,22.02
2022-08-21T08:13:53.813Z,22.02
2022-08-21T08:16:21.847Z,22.01
2022-08-21T08:18:51.512Z,22.02
2022-08-21T08:21:24.066Z,22.06
2022-08-21T08:23:52.610Z,22.10
2022-08-21T08:26:20.612Z,22.11
2022-08-21T08:28:48.857Z,22.08
2022-08-21T08:31:17.176Z,22.05
2022-08-21T08:33:45.249Z,22.04
2022-08-21T08:36:19.203Z,22.04
2022-08-21T08:38:49.221Z,22.12
2022-08-21T08:41:30.742Z,22.16
2022-08-21T08:44:06.944Z,22.21
2022-08-21T08:46:48.811Z,22.23
2022-08-21T08:49:52.466Z,22.22
2022-08-21T08:52:29.824Z,22.34
2022-08-21T08:55:10.627Z,22.48
2022-08-21T08:57:45.364Z,22.68
2022-08-21T09:00:22.373Z,22.85
2022-08-21T09:02:55.525Z,23.05
2022-08-21T09:05:36.298Z,23.29
2022-08-21T09:08:42.153Z,23.42
2022-08-21T09:11:22.027Z,23.70
2022-08-21T09:13:57.256Z,23.88
2022-08-21T09:16:31.247Z,24.04
2022-08-21T09:19:07.685Z,24.35
2022-08-21T09:21:51.149Z,24.53
2022-08-21T09:24:39.563Z,24.73
2022-08-21T09:27:14.294Z,24.94
2022-08-21T09:29:48.835Z,25.10
2022-08-21T09:32:19.579Z,25.30
2022-08-21T09:35:05.251Z,25.42
2022-08-21T09:37:36.615Z,25.44
2022-08-21T09:40:20.414Z,25.30
2022-08-21T09:42:57.909Z,24.91
2022-08-21T09:45:26.455Z,24.59
2022-08-21T09:47:55.273Z,24.61
2022-08-21T09:50:27.955Z,24.66
2022-08-21T09:53:01.267Z,24.75
2022-08-21T09:55:57.955Z,25.00
2022-08-21T09:58:34.165Z,25.23
2022-08-21T10:01:05.706Z,25.15
2022-08-21T10:03:34.649Z,25.30
2022-08-21T10:06:09.924Z,25.39
2022-08-21T10:08:40.528Z,25.87
2022-08-21T10:11:14.922Z,26.29
2022-08-21T10:14:07.247Z,26.74
2022-08-21T10:16:38.566Z,26.94
2022-08-21T10:19:24.896Z,26.88
2022-08-21T10:22:14.610Z,26.82
2022-08-21T10:25:16.392Z,26.67
2022-08-21T10:28:01.599Z,25.97
2022-08-21T10:30:44.839Z,25.96
2022-08-21T10:33:47.802Z,26.08
2022-08-21T10:36:57.176Z,25.90
2022-08-21T10:39:47.998Z,25.72
2022-08-21T10:42:37.790Z,25.69
2022-08-21T10:45:26.030Z,25.66
2022-08-21T10:47:58.467Z,25.64
2022-08-21T10:50:26.584Z,25.88
2022-08-21T10:53:02.111Z,25.89
2022-08-21T10:55:57.473Z,25.78
2022-08-21T10:58:38.441Z,25.55
2022-08-21T11:01:16.606Z,25.49
2022-08-21T11:03:50.850Z,25.34
2022-08-21T11:06:24.562Z,25.32
2022-08-21T11:09:00.819Z,25.35
2022-08-21T11:11:36.227Z,25.69
2022-08-21T11:14:23.161Z,25.58
2022-08-21T11:17:06.481Z,25.25
2022-08-21T11:19:57.744Z,25.11
2022-08-21T11:22:39.110Z,25.17
2022-08-21T11:25:12.033Z,25.46
2022-08-21T11:27:46.306Z,25.75
2022-08-21T11:30:15.210Z,26.06
2022-08-21T11:32:49.568Z,26.30
2022-08-21T11:35:34.668Z,26.62
2022-08-21T11:38:29.037Z,26.55
2022-08-21T11:41:14.841Z,26.40
2022-08-21T11:43:47.235Z,26.30
2022-08-21T11:46:18.267Z,25.99
2022-08-21T11:49:21.361Z,26.55
2022-08-21T11:52:13.074Z,27.02
2022-08-21T11:54:44.641Z,27.07
2022-08-21T11:57:24.137Z,26.75
2022-08-21T12:00:12.044Z,26.74
2022-08-21T12:02:51.113Z,27.01
2022-08-21T12:05:39.498Z,27.02
2022-08-21T12:08:14.493Z,26.88
2022-08-21T12:11:00.187Z,26.64
2022-08-21T12:13:39.959Z,26.50
2022-08-21T12:16:29.453Z,26.57
2022-08-21T12:19:05.396Z,26.81
2022-08-21T12:21:34.483Z,26.91
2022-08-21T12:24:19.485Z,26.87
2022-08-21T12:26:52.728Z,26.89
2022-08-21T12:29:28.926Z,26.61
2022-08-21T12:32:02.008Z,26.73
2022-08-21T12:34:43.662Z,27.13
2022-08-21T12:37:42.345Z,27.33
2022-08-21T12:40:21.922Z,27.09
2022-08-21T12:42:58.927Z,26.89
2022-08-21T12:45:34.579Z,26.95
2022-08-21T12:48:12.595Z,27.00
2022-08-21T12:50:58.762Z,26.86
2022-08-21T12:53:41.685Z,26.83
2022-08-21T12:56:13.735Z,26.85
2022-08-21T12:58:47.791Z,26.40
2022-08-21T13:01:41.326Z,26.15
2022-08-21T13:04:14.111Z,26.32
2022-08-21T13:06:46.303Z,26.54
2022-08-21T13:09:18.246Z,26.71
2022-08-21T13:11:49.833Z,26.76
2022-08-21T13:14:38.366Z,26.79
2022-08-21T13:17:23.216Z,26.82
2022-08-21T13:19:59.142Z,26.90
2022-08-21T13:22:33.093Z,26.87
2022-08-21T13:25:10.595Z,26.79
2022-08-21T13:27:38.724Z,26.93
2022-08-21T13:30:09.263Z,27.05
2022-08-21T13:32:42.188Z,26.99
2022-08-21T13:35:20.329Z,27.09
2022-08-21T13:37:52.896Z,27.16
2022-08-21T13:40:48.250Z,26.95
2022-08-21T13:43:23.748Z,26.92
2022-08-21T13:45:54.715Z,27.00
2022-08-21T13:48:26.334Z,27.02
2022-08-21T13:50:55.933Z,26.99
2022-08-21T13:53:36.480Z,27.04
2022-08-21T13:56:06.191Z,27.08
2022-08-21T13:58:47.265Z,26.96
2022-08-21T14:01:41.107Z,26.96
2022-08-21T14:04:40.348Z,27.01
2022-08-21T14:07:25.606Z,27.16
2022-08-21T14:09:55.215Z,27.31
2022-08-21T14:12:53.071Z,27.35
2022-08-21T14:15:26.268Z,27.37
2022-08-21T14:17:54.301Z,27.36
2022-08-21T14:20:37.277Z,27.28
2022-08-21T14:23:05.505Z,27.15
2022-08-21T14:25:43.901Z,27.04
2022-08-21T14:28:28.294Z,26.98
2022-08-21T14:30:57.956Z,26.89
2022-08-21T14:33:30.446Z,26.80
2022-08-21T14:36:02.466Z,26.76
2022-08-21T14:38:31.233Z,26.71
2022-08-21T14:41:17.134Z,26.67
2022-08-21T14:43:47.709Z,26.59
2022-08-21T14:46:31.498Z,26.53
2022-08-21T14:48:59.980Z,26.55
2022-08-21T14:51:28.240Z,26.49
2022-08-21T14:53:56.519Z,26.36
2022-08-21T14:56:27.035Z,26.29
2022-08-21T14:59:00.537Z,26.00
2022-08-21T15:01:29.118Z,25.69
2022-08-21T15:03:57.646Z,25.49
2022-08-21T15:06:25.790Z,25.29
2022-08-21T15:08:54.126Z,25.21
2022-08-21T15:11:42.091Z,25.21
2022-08-21T15:14:20.045Z,25.17
2022-08-21T15:16:49.602Z,25.08
2022-08-21T15:19:17.947Z,24.94
2022-08-21T15:21:46.118Z,24.82
2022-08-21T15:24:14.294Z,24.69
2022-08-21T15:26:44.079Z,24.66
2022-08-21T15:29:12.663Z,24.51
2022-08-21T15:31:53.763Z,24.37
2022-08-21T15:34:27.338Z,24.25
2022-08-21T15:36:57.438Z,24.21
2022-08-21T15:39:30.218Z,24.23
2022-08-21T15:42:06.169Z,24.21
2022-08-21T15:44:41.665Z,24.18
2022-08-21T15:47:26.023Z,24.19
2022-08-21T15:49:54.281Z,24.18
2022-08-21T15:52:23.967Z,24.14
2022-08-21T15:54:52.953Z,24.13
2022-08-21T15:57:24.399Z,24.14
2022-08-21T15:59:57.334Z,24.13
2022-08-21T16:02:31.647Z,24.12
2022-08-21T16:05:00.507Z,24.10
2022-08-21T16:07:28.801Z,24.06
2022-08-21T16:09:56.802Z,23.98
2022-08-21T16:12:28.983Z,23.92
2022-08-21T16:14:58.325Z,23.89
2022-08-21T16:17:30.738Z,23.85
2022-08-21T16:20:00.941Z,23.83
2022-08-21T16:22:40.518Z,23.83
2022-08-21T16:25:18.037Z,23.80
2022-08-21T16:27:51.487Z,23.74
2022-08-21T16:30:22.222Z,23.68
2022-08-21T16:32:51.963Z,23.63
2022-08-21T16:35:22.570Z,23.57
2022-08-21T16:37:53.298Z,23.53
2022-08-21T16:40:27.429Z,23.48
2022-08-21T16:42:56.498Z,23.43
2022-08-21T16:45:25.729Z,23.38
2022-08-21T16:47:55.798Z,23.31
2022-08-21T16:50:25.928Z,23.27
2022-08-21T16:52:54.673Z,23.21
2022-08-21T16:55:22.881Z,23.16
2022-08-21T16:57:51.053Z,23.14
2022-08-21T17:00:19.422Z,23.12
2022-08-21T17:02:51.095Z,23.09
2022-08-21T17:05:20.046Z,23.06
2022-08-21T17:07:48.858Z,23.00
2022-08-21T17:10:19.264Z,22.95
2022-08-21T17:12:56.795Z,22.93
2022-08-21T17:15:31.432Z,22.88
2022-08-21T17:18:01.205Z,22.82
2022-08-21T17:20:30.742Z,22.79
2022-08-21T17:22:59.141Z,22.75
2022-08-21T17:25:27.836Z,22.70
2022-08-21T17:27:56.371Z,22.65
2022-08-21T17:30:25.722Z,22.57
2022-08-21T17:32:58.233Z,22.49
2022-08-21T17:35:27.604Z,22.45
2022-08-21T17:37:55.690Z,22.40
2022-08-21T17:40:25.633Z,22.36
2022-08-21T17:42:53.781Z,22.32
2022-08-21T17:45:22.220Z,22.30
2022-08-21T17:47:50.966Z,22.30
2022-08-21T17:50:22.609Z,22.30
2022-08-21T17:52:52.450Z,22.26
2022-08-21T17:55:21.192Z,22.20
2022-08-21T17:57:51.599Z,22.12
2022-08-21T18:00:20.850Z,22.12
2022-08-21T18:02:59.381Z,22.10
2022-08-21T18:05:28.087Z,22.06
2022-08-21T18:07:56.696Z,22.01
2022-08-21T18:10:25.110Z,21.98
2022-08-21T18:12:53.500Z,21.95
2022-08-21T18:15:22.062Z,21.93
2022-08-21T18:17:51.841Z,21.91
2022-08-21T18:20:22.383Z,21.89
2022-08-21T18:22:50.702Z,21.87
2022-08-21T18:25:18.945Z,21.84
2022-08-21T18:27:51.229Z,21.82
2022-08-21T18:30:22.075Z,21.79
2022-08-21T18:32:52.746Z,21.77
2022-08-21T18:35:22.554Z,21.73
2022-08-21T18:37:51.831Z,21.68
2022-08-21T18:40:21.851Z,21.63
2022-08-21T18:42:55.771Z,21.59
2022-08-21T18:45:24.709Z,21.55
2022-08-21T18:47:55.802Z,21.54
2022-08-21T18:50:26.520Z,21.51
2022-08-21T18:52:55.085Z,21.48
2022-08-21T18:55:24.547Z,21.46
2022-08-21T18:57:55.207Z,21.45
2022-08-21T19:00:29.003Z,21.41
2022-08-21T19:02:58.331Z,21.36
2022-08-21T19:05:27.066Z,21.32
2022-08-21T19:07:55.456Z,21.25
2022-08-21T19:10:28.737Z,21.21
2022-08-21T19:13:01.590Z,21.18
2022-08-21T19:15:30.090Z,21.14
2022-08-21T19:17:59.177Z,21.09
2022-08-21T19:20:36.728Z,21.03
2022-08-21T19:26:00.559Z,20.91
2022-08-21T19:28:32.583Z,20.84
2022-08-21T19:31:05.818Z,20.78
2022-08-21T19:33:44.271Z,20.74
2022-08-21T19:36:13.614Z,20.70
2022-08-21T19:38:46.137Z,20.67
2022-08-21T19:41:16.827Z,20.65
2022-08-21T19:43:51.041Z,20.65
2022-08-21T19:46:29.152Z,20.65
2022-08-21T19:48:59.035Z,20.65
2022-08-21T19:51:27.610Z,20.65
2022-08-21T19:53:57.221Z,20.66
2022-08-21T19:56:28.691Z,20.66
2022-08-21T19:58:57.754Z,20.66
2022-08-21T20:01:27.216Z,20.64
2022-08-21T20:03:57.208Z,20.59
2022-08-21T20:06:26.353Z,20.55
2022-08-21T20:08:55.306Z,20.52
2022-08-21T20:11:32.080Z,20.49
2022-08-21T20:14:01.915Z,20.41
2022-08-21T20:16:31.078Z,20.32
2022-08-21T20:19:00.337Z,20.28
2022-08-21T20:21:28.207Z,20.25
2022-08-21T20:23:57.175Z,20.23
2022-08-21T20:26:26.502Z,20.21
2022-08-21T20:28:55.261Z,20.18
2022-08-21T20:31:24.707Z,20.14
2022-08-21T20:33:56.083Z,20.09
2022-08-21T20:36:24.152Z,20.05
2022-08-21T20:38:53.038Z,20.02
2022-08-21T20:41:30.587Z,19.99
2022-08-21T20:44:01.196Z,19.98
2022-08-21T20:46:32.107Z,19.98
2022-08-21T20:49:02.282Z,19.95
2022-08-21T20:51:36.152Z,19.94
2022-08-21T20:54:24.232Z,19.93
2022-08-21T20:57:17.682Z,19.91
2022-08-21T20:59:52.177Z,19.86
2022-08-21T21:02:23.283Z,19.83
2022-08-21T21:05:02.107Z,19.81
2022-08-21T21:08:03.348Z,19.80
2022-08-21T21:10:34.402Z,19.79
2022-08-21T21:13:18.887Z,19.81
2022-08-21T21:15:52.341Z,19.81
2022-08-21T21:18:30.183Z,19.78
2022-08-21T21:21:20.768Z,19.73
2022-08-21T21:24:17.042Z,19.69
2022-08-21T21:26:57.023Z,19.63
2022-08-21T21:29:29.866Z,19.60
2022-08-21T21:31:58.546Z,19.60
2022-08-21T21:37:25.552Z,19.62
2022-08-21T21:40:15.629Z,19.60
2022-08-21T21:43:04.032Z,19.60
2022-08-21T21:45:58.128Z,19.64
2022-08-21T21:48:52.796Z,19.64
2022-08-21T21:51:45.345Z,19.61
2022-08-21T21:54:16.747Z,19.58
2022-08-21T21:56:48.515Z,19.53
2022-08-21T21:59:29.870Z,19.47
2022-08-21T22:02:35.151Z,19.43
2022-08-21T22:05:25.357Z,19.41
2022-08-21T22:08:08.012Z,19.41
2022-08-21T22:10:57.817Z,19.41
2022-08-21T22:13:42.385Z,19.42
2022-08-21T22:16:14.881Z,19.44
2022-08-21T22:18:53.629Z,19.45
2022-08-21T22:21:42.948Z,19.44
2022-08-21T22:24:18.511Z,19.41
2022-08-21T22:26:50.896Z,19.41
2022-08-21T22:29:22.118Z,19.42
2022-08-21T22:32:10.447Z,19.43
2022-08-21T22:34:38.425Z,19.37
2022-08-21T22:37:11.311Z,19.32
2022-08-21T22:39:43.760Z,19.28
2022-08-21T22:42:24.908Z,19.25
2022-08-21T22:44:57.036Z,19.24
2022-08-21T22:47:37.476Z,19.21
2022-08-21T22:50:24.190Z,19.18
2022-08-21T22:52:57.093Z,19.20
2022-08-21T22:55:34.493Z,19.24
2022-08-21T22:58:13.773Z,19.27
2022-08-21T23:00:50.791Z,19.29
2022-08-21T23:03:32.574Z,19.29
2022-08-21T23:06:21.832Z,19.25
2022-08-21T23:08:49.831Z,19.24
2022-08-21T23:11:23.299Z,19.24
2022-08-21T23:13:54.451Z,19.23
2022-08-21T23:16:37.595Z,19.21
2022-08-21T23:19:34.400Z,19.20
2022-08-21T23:22:16.861Z,19.24
2022-08-21T23:25:03.681Z,19.29
2022-08-21T23:30:32.742Z,19.37
2022-08-21T23:33:09.557Z,19.44
2022-08-21T23:35:56.036Z,19.49
2022-08-21T23:38:51.474Z,19.49
2022-08-21T23:41:34.377Z,19.49
2022-08-21T23:44:25.059Z,19.49
2022-08-21T23:47:04.506Z,19.48
2022-08-21T23:49:57.046Z,19.47
2022-08-21T23:52:44.839Z,19.45
2022-08-21T23:55:25.467Z,19.41
2022-08-21T23:58:00.598Z,19.41
